Time;durP1;ratioP1;P1;durP2;ratioP2;P2;SDS_P1;SDS_P2;PMS_P1;PMS_P2;Temp;Humidity;BMP_temperature;BMP_pressure;BME280_temperature;BME280_humidity;BME280_pressure;Samples;Min_cycle;Max_cycle;Signal;HPM_P1;HPM_P2
2023/09/07 00:01:30;;;;;;;8.45;6.55;;;;;;;18.08;86.91;100481.56;4741080;30;20046;-94
2023/09/07 00:03:55;;;;;;;6.85;5.63;;;;;;;18.07;86.94;100477.19;4719189;30;20523;-94
2023/09/07 00:06:21;;;;;;;6.28;5.55;;;;;;;18.05;86.91;100476.47;4719098;30;20052;-94
2023/09/07 00:08:46;;;;;;;8.77;5.95;;;;;;;18.00;87.12;100475.94;4719023;30;20051;-94
2023/09/07 00:11:12;;;;;;;8.82;6.53;;;;;;;17.95;87.02;100470.94;4719239;30;20071;-93
2023/09/07 00:13:38;;;;;;;8.43;6.60;;;;;;;17.75;87.11;100429.22;4704358;30;20075;-94
2023/09/07 00:16:04;;;;;;;7.43;6.13;;;;;;;17.99;87.75;100476.84;4716503;30;20514;-93
2023/09/07 00:18:31;;;;;;;9.40;6.15;;;;;;;17.83;87.93;100463.81;4704423;30;20041;-93
2023/09/07 00:20:56;;;;;;;7.10;5.75;;;;;;;17.84;88.09;100465.50;4719220;30;20519;-95
2023/09/07 00:23:42;;;;;;;9.10;6.25;;;;;;;17.68;88.38;100446.31;4721604;30;20045;-95
2023/09/07 00:26:09;;;;;;;9.32;5.90;;;;;;;17.89;88.11;100478.38;4719428;30;20087;-94
2023/09/07 00:28:34;;;;;;;12.52;7.03;;;;;;;17.91;88.20;100481.78;4704609;30;20111;-94
2023/09/07 00:31:00;;;;;;;9.32;6.93;;;;;;;17.87;88.27;100478.50;4733902;30;20044;-94
2023/09/07 00:33:25;;;;;;;8.45;6.35;;;;;;;17.87;88.90;100489.03;4719060;30;20507;-94
2023/09/07 00:35:51;;;;;;;8.95;6.53;;;;;;;17.86;88.68;100478.59;4719788;30;20542;-94
2023/09/07 00:38:16;;;;;;;8.15;6.50;;;;;;;17.37;88.66;100402.63;4736410;30;20135;-94
2023/09/07 00:40:45;;;;;;;9.07;7.22;;;;;;;17.54;89.04;100428.75;4721470;30;20136;-93
2023/09/07 00:43:11;;;;;;;7.68;6.38;;;;;;;17.81;89.36;100473.59;4750963;30;20146;-94
2023/09/07 00:45:37;;;;;;;10.52;6.93;;;;;;;17.15;89.10;100363.63;4750949;30;20600;-94
2023/09/07 00:48:03;;;;;;;8.98;6.57;;;;;;;17.81;89.75;100473.59;4734056;30;20036;-95
2023/09/07 00:50:29;;;;;;;8.32;6.65;;;;;;;17.75;89.73;100460.84;4735640;30;20105;-93
2023/09/07 00:52:55;;;;;;;10.05;7.45;;;;;;;17.54;89.50;100430.53;4735814;30;20462;-93
2023/09/07 00:55:41;;;;;;;9.18;6.55;;;;;;;17.77;90.07;100471.25;4735780;30;20079;-91
2023/09/07 00:58:06;;;;;;;7.72;6.93;;;;;;;17.74;90.09;100466.16;4735841;30;20075;-93
2023/09/07 01:00:34;;;;;;;9.45;7.65;;;;;;;17.69;90.57;100462.00;4735611;30;20040;-92
2023/09/07 01:03:01;;;;;;;8.95;6.97;;;;;;;17.69;90.40;100467.28;4721563;30;20040;-93
2023/09/07 01:05:34;;;;;;;9.95;7.18;;;;;;;17.42;90.87;100430.38;4735560;30;20044;-92
2023/09/07 01:08:26;;;;;;;10.35;6.88;;;;;;;17.41;90.86;100433.09;4750708;30;20044;-93
2023/09/07 01:10:52;;;;;;;10.30;7.15;;;;;;;17.32;90.94;100417.84;4722431;30;20083;-93
2023/09/07 01:13:37;;;;;;;10.93;8.00;;;;;;;17.56;91.17;100462.88;4708549;30;20037;-94
2023/09/07 01:16:24;;;;;;;9.90;7.22;;;;;;;17.16;91.44;100399.56;4697861;30;20501;-93
2023/09/07 01:18:49;;;;;;;11.65;7.40;;;;;;;17.39;92.07;100448.13;4666738;30;20112;-95
2023/09/07 01:21:16;;;;;;;10.10;8.27;;;;;;;17.39;92.21;100454.25;4683567;30;20053;-93
2023/09/07 01:23:43;;;;;;;9.68;7.65;;;;;;;17.35;92.08;100451.91;4646614;30;20106;-93
2023/09/07 01:26:09;;;;;;;9.38;7.70;;;;;;;17.23;92.44;100428.97;4632840;30;20074;-93
2023/09/07 01:28:39;;;;;;;13.50;7.78;;;;;;;17.36;92.17;100456.22;4632458;30;20051;-94
2023/09/07 01:31:05;;;;;;;13.43;8.20;;;;;;;16.86;92.33;100376.81;4646740;30;20051;-92
2023/09/07 01:33:31;;;;;;;10.68;6.80;;;;;;;17.20;92.59;100445.81;4646444;30;20050;-93
2023/09/07 01:35:57;;;;;;;11.07;7.40;;;;;;;17.24;92.95;100454.38;4632428;30;20051;-93
2023/09/07 01:38:22;;;;;;;10.13;7.38;;;;;;;17.11;93.18;100435.84;4632582;30;20114;-93
2023/09/07 01:40:48;;;;;;;9.10;7.20;;;;;;;17.30;93.17;100470.63;4632106;30;20047;-93
2023/09/07 01:43:14;;;;;;;10.75;8.10;;;;;;;17.19;93.29;100458.13;4632380;30;20051;-93
2023/09/07 01:45:40;;;;;;;8.73;7.10;;;;;;;17.27;93.78;100462.91;4632171;30;20492;-92
2023/09/07 01:48:09;;;;;;;11.07;8.50;;;;;;;17.24;93.47;100468.38;4673669;30;20042;-92
2023/09/07 01:50:36;;;;;;;9.68;8.00;;;;;;;17.20;93.47;100466.88;4690988;30;20092;-92
2023/09/07 01:53:03;;;;;;;10.75;7.85;;;;;;;17.21;93.84;100468.56;4686558;30;20464;-93
2023/09/07 01:55:31;;;;;;;10.40;8.43;;;;;;;17.23;94.20;100468.44;4730168;30;20059;-93
2023/09/07 01:57:57;;;;;;;9.52;8.52;;;;;;;17.19;94.07;100478.31;4733672;30;20060;-92
2023/09/07 02:00:22;;;;;;;11.13;7.82;;;;;;;17.16;94.55;100471.47;4721854;30;20041;-93
2023/09/07 02:02:47;;;;;;;9.55;7.80;;;;;;;17.15;94.20;100475.06;4736257;30;20158;-93
2023/09/07 02:05:13;;;;;;;10.52;7.82;;;;;;;17.17;94.16;100461.78;4739435;30;20074;-92
2023/09/07 02:07:38;;;;;;;10.10;8.32;;;;;;;17.12;94.34;100461.22;4736732;30;20132;-92
2023/09/07 02:10:24;;;;;;;11.02;7.32;;;;;;;17.07;94.55;100458.03;4705986;30;20075;-92
2023/09/07 02:12:49;;;;;;;11.00;7.60;;;;;;;17.10;94.68;100465.72;4703049;30;20220;-92
2023/09/07 02:15:15;;;;;;;11.25;8.27;;;;;;;17.05;95.13;100462.53;4703099;30;20049;-92
2023/09/07 02:17:40;;;;;;;13.93;8.85;;;;;;;17.05;95.38;100462.53;4702790;30;20147;-92
2023/09/07 02:20:10;;;;;;;8.98;7.80;;;;;;;17.00;96.07;100460.19;4717137;30;20504;-92
2023/09/07 02:22:36;;;;;;;12.63;8.57;;;;;;;16.75;95.91;100428.38;4699756;30;20045;-92
2023/09/07 02:25:03;;;;;;;12.35;8.10;;;;;;;16.90;96.07;100467.78;4699967;30;20046;-93
2023/09/07 02:27:28;;;;;;;11.98;8.70;;;;;;;16.90;96.34;100466.94;4699787;30;20045;-92
2023/09/07 02:29:53;;;;;;;11.90;8.90;;;;;;;16.83;96.89;100468.25;4699736;30;20053;-92
2023/09/07 02:32:19;;;;;;;12.77;8.40;;;;;;;16.65;97.33;100447.31;4700074;30;20042;-92
2023/09/07 02:34:44;;;;;;;13.15;8.18;;;;;;;16.77;98.06;100473.84;4699777;30;20643;-92
2023/09/07 02:37:09;;;;;;;11.32;8.68;;;;;;;16.76;98.38;100470.38;4699625;30;20405;-92
2023/09/07 02:39:35;;;;;;;11.85;8.15;;;;;;;16.73;98.03;100478.47;4699600;30;20099;-92
2023/09/07 02:42:00;;;;;;;11.55;8.85;;;;;;;16.70;98.35;100473.34;4711493;30;20126;-92
2023/09/07 02:44:26;;;;;;;11.05;8.70;;;;;;;16.46;98.36;100442.28;4734708;30;20407;-92
2023/09/07 02:46:51;;;;;;;11.82;8.63;;;;;;;16.59;98.81;100473.13;4720164;30;20567;-93
2023/09/07 02:49:16;;;;;;;11.90;9.27;;;;;;;16.59;98.92;100481.00;4720107;30;20056;-92
2023/09/07 02:51:42;;;;;;;12.82;9.38;;;;;;;16.55;98.82;100468.97;4734455;30;20087;-93
2023/09/07 02:54:07;;;;;;;10.23;8.93;;;;;;;16.50;99.49;100471.88;4733462;30;20052;-93
2023/09/07 02:56:32;;;;;;;11.68;8.60;;;;;;;16.46;99.42;100473.84;4745680;30;20047;-92
2023/09/07 02:58:58;;;;;;;11.07;8.75;;;;;;;16.26;99.85;100452.25;4756234;30;20134;-92
2023/09/07 03:01:23;;;;;;;10.07;8.60;;;;;;;16.37;100.00;100477.00;4756053;30;20040;-92
2023/09/07 03:03:49;;;;;;;10.98;8.80;;;;;;;16.34;100.00;100471.06;4755602;30;20065;-93
2023/09/07 03:06:16;;;;;;;12.77;9.80;;;;;;;16.28;100.00;100474.91;4755572;30;20131;-92
2023/09/07 03:08:45;;;;;;;11.05;8.63;;;;;;;16.24;100.00;100469.91;4755746;30;20031;-92
2023/09/07 03:11:11;;;;;;;14.98;8.88;;;;;;;16.23;100.00;100474.31;4755779;30;20047;-93
2023/09/07 03:13:36;;;;;;;13.25;9.77;;;;;;;16.01;100.00;100439.66;4755352;30;20118;-91
2023/09/07 03:16:03;;;;;;;14.93;10.70;;;;;;;15.94;100.00;100439.19;4755061;30;20164;-92
2023/09/07 03:18:29;;;;;;;11.32;9.10;;;;;;;16.10;100.00;100466.28;4755676;30;20398;-92
2023/09/07 03:20:57;;;;;;;11.55;8.82;;;;;;;16.09;100.00;100476.88;4755539;30;20050;-92
2023/09/07 03:23:23;;;;;;;11.52;9.18;;;;;;;16.03;100.00;100475.44;4755880;30;20389;-92
2023/09/07 03:25:48;;;;;;;11.55;9.27;;;;;;;15.88;100.00;100450.00;4755286;30;20127;-92
2023/09/07 03:28:14;;;;;;;12.57;9.50;;;;;;;15.74;100.00;100435.03;4755766;30;20497;-92
2023/09/07 03:30:39;;;;;;;12.63;10.18;;;;;;;15.99;100.00;100478.31;4755238;30;20074;-92
2023/09/07 03:33:05;;;;;;;14.57;10.38;;;;;;;16.01;100.00;100476.44;4755564;30;20102;-91
2023/09/07 03:35:31;;;;;;;13.63;10.25;;;;;;;15.95;100.00;100469.75;4755803;30;20040;-93
2023/09/07 03:37:56;;;;;;;12.80;10.43;;;;;;;15.92;100.00;100470.75;4770062;30;20032;-93
2023/09/07 03:40:22;;;;;;;13.73;12.10;;;;;;;15.93;100.00;100484.78;4755364;30;20032;-92
2023/09/07 03:42:47;;;;;;;14.05;10.60;;;;;;;15.87;100.00;100471.97;4755167;30;20123;-91
2023/09/07 03:45:12;;;;;;;12.60;10.88;;;;;;;15.88;100.00;100482.38;4755019;30;20028;-93
2023/09/07 03:47:38;;;;;;;12.50;10.43;;;;;;;15.84;100.00;100478.22;4754786;30;20043;-92
2023/09/07 03:50:04;;;;;;;16.98;11.95;;;;;;;15.80;100.00;100478.47;4756100;30;20446;-94
2023/09/07 03:52:50;;;;;;;14.50;10.45;;;;;;;15.75;100.00;100475.25;4734788;30;20041;-93
2023/09/07 03:55:17;;;;;;;13.60;11.15;;;;;;;15.81;100.00;100478.41;4720099;30;20108;-94
2023/09/07 03:57:42;;;;;;;15.40;11.93;;;;;;;15.73;100.00;100472.72;4705264;30;20052;-93
2023/09/07 04:00:28;;;;;;;13.00;10.75;;;;;;;15.80;100.00;100475.84;4722376;30;20106;-95
2023/09/07 04:02:53;;;;;;;16.45;10.73;;;;;;;15.79;100.00;100479.41;4719951;30;20048;-94
2023/09/07 04:05:21;;;;;;;15.77;11.52;;;;;;;15.59;100.00;100452.47;4719913;30;20134;-94
2023/09/07 04:07:46;;;;;;;16.88;11.88;;;;;;;15.76;100.00;100484.84;4719929;30;20094;-94
2023/09/07 04:10:12;;;;;;;14.75;11.18;;;;;;;15.44;100.00;100432.28;4734189;30;20087;-94
2023/09/07 04:12:38;;;;;;;22.25;13.68;;;;;;;15.73;100.00;100485.88;4731720;30;20136;-94
2023/09/07 04:15:04;;;;;;;18.50;11.48;;;;;;;15.54;100.00;100459.72;4734295;30;20085;-95
2023/09/07 04:17:29;;;;;;;18.30;13.10;;;;;;;15.73;100.00;100490.28;4730246;30;20041;-94
2023/09/07 04:19:55;;;;;;;15.95;12.63;;;;;;;15.64;100.00;100471.47;4733900;30;20153;-93
2023/09/07 04:22:21;;;;;;;13.55;11.75;;;;;;;15.75;100.00;100486.63;4734414;30;20036;-94
2023/09/07 04:24:50;;;;;;;15.63;11.27;;;;;;;15.55;100.00;100457.94;4703735;30;20191;-94
2023/09/07 04:27:58;;;;;;;15.02;11.57;;;;;;;15.79;100.00;100488.16;4669725;30;20130;-94
2023/09/07 04:31:03;;;;;;;17.38;13.10;;;;;;;15.71;100.00;100488.56;4676825;30;20083;-93
2023/09/07 04:33:44;;;;;;;24.63;13.63;;;;;;;15.75;100.00;100484.00;4672761;30;20065;-93
2023/09/07 04:36:11;;;;;;;18.15;13.13;;;;;;;15.77;100.00;100483.94;4667643;30;20046;-94
2023/09/07 04:38:38;;;;;;;15.85;13.07;;;;;;;15.84;100.00;100493.97;4681919;30;20417;-94
2023/09/07 04:41:10;;;;;;;16.40;12.88;;;;;;;15.61;100.00;100455.00;4681683;30;20073;-94
2023/09/07 04:43:37;;;;;;;18.40;13.98;;;;;;;15.46;100.00;100435.66;4667374;30;20050;-93
2023/09/07 04:46:03;;;;;;;15.38;12.15;;;;;;;15.82;100.00;100479.25;4667200;30;20053;-95
2023/09/07 04:48:48;;;;;;;16.35;12.10;;;;;;;15.94;100.00;100494.34;4681574;30;20042;-94
2023/09/07 04:51:16;;;;;;;17.20;12.50;;;;;;;15.54;100.00;100425.56;4681592;30;20434;-94
2023/09/07 04:53:43;;;;;;;16.40;12.88;;;;;;;15.99;100.00;100501.97;4667469;30;20120;-94
2023/09/07 04:56:09;;;;;;;15.30;12.35;;;;;;;15.87;100.00;100480.69;4667261;30;20054;-93
2023/09/07 04:58:56;;;;;;;16.13;12.98;;;;;;;15.86;100.00;100483.41;4667396;30;20077;-94
2023/09/07 05:01:23;;;;;;;13.38;11.60;;;;;;;16.06;100.00;100505.97;4675702;30;20556;-93
2023/09/07 05:04:30;;;;;;;18.27;13.20;;;;;;;16.02;100.00;100483.41;4698697;30;20081;-94
2023/09/07 05:07:35;;;;;;;15.75;11.73;;;;;;;16.06;100.00;100462.13;4664466;30;20049;-94
2023/09/07 05:10:01;;;;;;;15.23;11.80;;;;;;;16.40;100.00;100500.50;4649699;30;20113;-93
2023/09/07 05:12:28;;;;;;;16.40;11.85;;;;;;;16.61;100.00;100505.44;4635807;30;20074;-93
2023/09/07 05:14:53;;;;;;;17.23;13.65;;;;;;;16.53;100.00;100457.72;4648677;30;20054;-93
2023/09/07 05:17:39;;;;;;;16.73;12.18;;;;;;;17.13;100.00;100515.56;4647052;30;20043;-94
2023/09/07 05:20:25;;;;;;;15.55;11.73;;;;;;;17.36;100.00;100503.63;4613327;30;20044;-94
2023/09/07 05:22:53;;;;;;;15.05;12.05;;;;;;;17.41;100.00;100480.50;4629859;31;20052;-94
2023/09/07 05:25:40;;;;;;;14.48;11.60;;;;;;;17.48;100.00;100450.19;4600521;31;20094;-94
2023/09/07 05:28:07;;;;;;;14.88;11.95;;;;;;;17.86;100.00;100479.41;4613460;31;20051;-94
2023/09/07 05:31:12;;;;;;;17.60;13.15;;;;;;;18.24;99.79;100504.28;4608638;31;20052;-94
2023/09/07 05:33:37;;;;;;;12.60;11.30;;;;;;;18.75;99.18;100533.47;4580264;31;20049;-95
2023/09/07 05:36:43;;;;;;;15.52;11.18;;;;;;;18.82;97.91;100489.91;4563792;31;20069;-95
2023/09/07 05:39:48;;;;;;;15.15;11.80;;;;;;;19.14;97.45;100516.75;4583521;31;20076;-94
2023/09/07 05:42:34;;;;;;;14.77;11.55;;;;;;;19.42;95.58;100519.19;4550765;31;20494;-93
2023/09/07 05:45:00;;;;;;;14.00;10.95;;;;;;;19.70;94.89;100538.41;4550428;31;20060;-95
2023/09/07 05:47:26;;;;;;;14.43;11.75;;;;;;;19.33;93.20;100439.72;4549940;31;20053;-93
2023/09/07 05:49:55;;;;;;;14.43;10.13;;;;;;;19.70;92.42;100477.63;4537370;31;20098;-94
2023/09/07 05:52:41;;;;;;;13.95;11.10;;;;;;;20.09;93.70;100502.97;4550896;31;20057;-94
2023/09/07 05:55:07;;;;;;;12.70;9.73;;;;;;;20.35;93.04;100524.91;4564225;31;20617;-93
2023/09/07 05:57:33;;;;;;;15.45;10.65;;;;;;;20.61;91.99;100543.34;4550581;31;20061;-94
2023/09/07 05:59:58;;;;;;;15.75;11.73;;;;;;;20.55;90.25;100519.97;4537604;31;20057;-94
2023/09/07 06:02:24;;;;;;;16.95;11.18;;;;;;;20.87;89.31;100551.97;4534700;31;20061;-94
2023/09/07 06:04:50;;;;;;;15.25;11.10;;;;;;;20.90;88.32;100520.81;4556950;31;20451;-94
2023/09/07 06:07:16;;;;;;;14.00;11.20;;;;;;;21.00;87.55;100513.00;4553700;31;20578;-94
2023/09/07 06:09:42;;;;;;;13.70;10.50;;;;;;;21.13;86.45;100503.16;4579174;31;20056;-93
2023/09/07 06:12:28;;;;;;;12.93;10.70;;;;;;;21.41;85.74;100525.75;4611453;31;20090;-95
2023/09/07 06:14:53;;;;;;;12.75;10.30;;;;;;;21.60;84.30;100541.03;4645830;30;20051;-94
2023/09/07 06:17:21;;;;;;;12.00;10.48;;;;;;;21.71;84.69;100539.38;4635893;30;20094;-94
2023/09/07 06:19:46;;;;;;;12.63;10.23;;;;;;;21.91;85.67;100542.13;4661198;30;20524;-94
2023/09/07 06:22:12;;;;;;;13.93;11.05;;;;;;;22.20;85.11;100543.41;4676329;30;20124;-93
2023/09/07 06:24:58;;;;;;;15.85;10.95;;;;;;;22.45;82.94;100550.22;4694232;30;20051;-92
2023/09/07 06:27:24;;;;;;;14.63;10.88;;;;;;;22.39;82.59;100499.31;4700848;30;20046;-93
2023/09/07 06:29:50;;;;;;;14.82;9.90;;;;;;;22.62;81.90;100501.88;4686249;30;20577;-91
2023/09/07 06:32:16;;;;;;;11.90;10.00;;;;;;;23.06;81.34;100537.19;4686820;30;20145;-94
2023/09/07 06:34:41;;;;;;;15.05;10.82;;;;;;;23.30;80.44;100550.19;4686407;30;20041;-91
2023/09/07 06:37:07;;;;;;;14.65;10.40;;;;;;;23.36;79.31;100552.31;4700262;30;20045;-92
2023/09/07 06:39:33;;;;;;;13.65;10.63;;;;;;;23.53;78.25;100559.69;4697606;30;20076;-93
2023/09/07 06:41:58;;;;;;;12.07;9.52;;;;;;;23.74;78.66;100557.00;4700491;30;20048;-95
2023/09/07 06:44:45;;;;;;;14.93;11.07;;;;;;;23.73;77.80;100522.56;4687104;30;20504;-93
2023/09/07 06:47:10;;;;;;;13.45;11.13;;;;;;;23.95;75.55;100556.09;4703366;30;20497;-93
2023/09/07 06:49:38;;;;;;;15.55;10.02;;;;;;;23.74;75.15;100500.31;4702211;30;20156;-93
2023/09/07 06:52:03;;;;;;;15.07;10.77;;;;;;;24.10;75.27;100552.94;4703200;30;20139;-93
2023/09/07 06:54:31;;;;;;;14.60;10.60;;;;;;;23.89;74.74;100506.91;4703329;30;20453;-92
2023/09/07 06:56:56;;;;;;;11.82;9.32;;;;;;;24.37;74.63;100565.63;4718329;30;20063;-93
2023/09/07 06:59:22;;;;;;;16.70;10.52;;;;;;;24.47;74.77;100567.44;4700224;30;20054;-91
2023/09/07 07:01:47;;;;;;;12.40;9.75;;;;;;;24.35;74.35;100564.03;4685775;30;20509;-93
2023/09/07 07:04:12;;;;;;;13.38;9.48;;;;;;;24.22;74.34;100548.31;4699807;30;20079;-92
2023/09/07 07:06:38;;;;;;;13.68;9.48;;;;;;;24.26;74.52;100543.56;4686110;30;20046;-92
2023/09/07 07:09:05;;;;;;;10.30;8.68;;;;;;;24.56;73.02;100561.28;4684572;30;20037;-94
2023/09/07 07:11:30;;;;;;;12.02;8.82;;;;;;;24.62;73.11;100577.56;4684647;30;20052;-94
2023/09/07 07:13:56;;;;;;;12.38;8.48;;;;;;;24.67;71.99;100582.47;4698953;30;20041;-93
2023/09/07 07:16:21;;;;;;;11.95;8.80;;;;;;;24.71;71.62;100575.88;4684547;30;20603;-93
2023/09/07 07:18:46;;;;;;;10.70;8.73;;;;;;;24.93;71.68;100577.41;4711593;30;20040;-92
2023/09/07 07:21:13;;;;;;;9.93;8.23;;;;;;;25.34;71.29;100573.59;4719961;30;20032;-92
2023/09/07 07:23:38;;;;;;;16.02;8.65;;;;;;;25.92;69.50;100555.72;4726740;30;20083;-93
2023/09/07 07:26:05;;;;;;;11.90;7.82;;;;;;;26.85;66.89;100582.09;4737095;30;20067;-93
2023/09/07 07:28:30;;;;;;;12.98;9.10;;;;;;;27.41;65.58;100577.34;4737315;30;20047;-94
2023/09/07 07:30:56;;;;;;;9.00;8.07;;;;;;;28.38;63.84;100560.03;4736990;30;20040;-94
2023/09/07 07:33:22;;;;;;;9.93;8.45;;;;;;;29.82;60.89;100589.81;4736961;30;20043;-93
2023/09/07 07:35:48;;;;;;;10.20;8.40;;;;;;;30.45;59.94;100588.84;4738758;30;20122;-93
2023/09/07 07:38:14;;;;;;;9.00;7.47;;;;;;;31.30;58.95;100590.56;4755578;30;20139;-92
2023/09/07 07:40:40;;;;;;;9.38;8.40;;;;;;;31.97;55.90;100589.66;4755669;30;20043;-94
2023/09/07 07:43:06;;;;;;;10.63;7.97;;;;;;;32.63;55.90;100573.44;4755468;30;20085;-93
2023/09/07 07:45:36;;;;;;;13.02;9.70;;;;;;;32.76;53.91;100592.44;4755668;30;20032;-92
2023/09/07 07:48:02;;;;;;;22.10;9.90;;;;;;;31.95;54.30;100573.69;4755605;30;20048;-93
2023/09/07 07:50:48;;;;;;;13.38;9.35;;;;;;;31.12;55.88;100584.66;4751685;30;20043;-93
2023/09/07 07:53:33;;;;;;;10.20;8.40;;;;;;;30.55;55.97;100593.97;4721636;30;20113;-91
2023/09/07 07:55:59;;;;;;;11.80;8.70;;;;;;;29.28;56.84;100595.78;4704501;30;20060;-93
2023/09/07 07:58:24;;;;;;;10.43;7.55;;;;;;;27.98;58.86;100599.09;4719426;30;20044;-93
2023/09/07 08:00:51;;;;;;;10.30;7.68;;;;;;;26.86;60.36;100590.94;4726379;30;20499;-93
2023/09/07 08:03:17;;;;;;;9.40;7.22;;;;;;;26.25;61.99;100586.28;4719954;30;20069;-92
2023/09/07 08:05:43;;;;;;;11.90;7.50;;;;;;;25.90;63.72;100584.38;4734121;30;20160;-94
2023/09/07 08:08:11;;;;;;;11.73;7.13;;;;;;;25.56;64.34;100577.72;4733835;30;20389;-93
2023/09/07 08:10:37;;;;;;;10.77;8.05;;;;;;;25.30;64.86;100598.84;4701564;30;20060;-93
2023/09/07 08:13:03;;;;;;;12.65;7.55;;;;;;;24.61;66.24;100557.22;4701416;30;20119;-93
2023/09/07 08:15:28;;;;;;;10.48;7.80;;;;;;;24.77;67.53;100591.28;4716173;30;20053;-93
2023/09/07 08:17:55;;;;;;;9.73;7.25;;;;;;;24.29;67.53;100522.00;4701285;30;20045;-93
2023/09/07 08:20:20;;;;;;;13.52;7.72;;;;;;;24.75;68.89;100582.59;4716099;30;20115;-92
2023/09/07 08:22:46;;;;;;;12.48;8.25;;;;;;;24.71;68.31;100575.03;4716496;30;20053;-92
2023/09/07 08:25:13;;;;;;;10.02;8.10;;;;;;;24.58;67.85;100552.19;4697756;30;20049;-92
2023/09/07 08:27:47;;;;;;;10.73;7.75;;;;;;;24.72;69.24;100598.03;4701179;30;20165;-92
2023/09/07 08:30:34;;;;;;;11.18;7.60;;;;;;;24.76;69.04;100599.44;4680223;30;20049;-92
2023/09/07 08:32:59;;;;;;;8.75;7.47;;;;;;;24.76;69.30;100589.59;4715750;30;20131;-91
2023/09/07 08:35:27;;;;;;;13.40;8.57;;;;;;;24.86;69.20;100595.78;4698459;30;20525;-93
2023/09/07 08:37:54;;;;;;;10.50;7.40;;;;;;;24.84;68.88;100581.75;4685257;30;20046;-94
2023/09/07 08:40:21;;;;;;;11.13;8.43;;;;;;;24.66;67.95;100579.94;4699704;30;20056;-92
2023/09/07 08:43:09;;;;;;;11.35;8.05;;;;;;;24.54;69.74;100596.06;4700963;30;20052;-93
2023/09/07 08:45:59;;;;;;;8.77;7.80;;;;;;;24.39;69.50;100584.09;4686554;30;20120;-91
2023/09/07 08:48:46;;;;;;;11.15;8.63;;;;;;;24.20;70.28;100576.06;4666224;30;20042;-93
2023/09/07 08:51:14;;;;;;;11.57;7.97;;;;;;;24.12;70.66;100588.22;4652819;30;20572;-93
2023/09/07 08:53:40;;;;;;;13.90;7.55;;;;;;;23.97;70.63;100575.41;4652204;30;20594;-91
2023/09/07 08:56:09;;;;;;;8.65;7.43;;;;;;;23.94;71.51;100570.41;4667460;30;20054;-93
2023/09/07 08:58:36;;;;;;;10.52;7.30;;;;;;;23.32;70.44;100456.03;4652368;30;20050;-91
2023/09/07 09:01:01;;;;;;;10.02;7.43;;;;;;;24.13;72.08;100579.25;4660846;30;20062;-92
2023/09/07 09:03:28;;;;;;;11.15;7.40;;;;;;;24.25;70.08;100584.47;4649481;30;20047;-92
2023/09/07 09:05:56;;;;;;;14.27;7.47;;;;;;;24.18;71.18;100580.66;4663331;30;20045;-93
2023/09/07 09:08:24;;;;;;;10.85;7.30;;;;;;;24.20;72.20;100574.25;4700318;30;20588;-93
2023/09/07 09:11:03;;;;;;;12.48;7.18;;;;;;;24.21;71.69;100591.06;4685753;30;20038;-92
2023/09/07 09:13:31;;;;;;;8.68;7.38;;;;;;;24.10;70.55;100598.19;4702807;30;20045;-93
2023/09/07 09:16:01;;;;;;;18.42;7.75;;;;;;;23.96;70.96;100598.53;4715541;30;20052;-92
2023/09/07 09:18:27;;;;;;;8.32;6.78;;;;;;;23.70;71.37;100560.91;4701046;30;20123;-93
2023/09/07 09:20:54;;;;;;;11.27;7.28;;;;;;;23.80;71.49;100592.88;4750172;30;20067;-92
2023/09/07 09:23:20;;;;;;;9.02;7.20;;;;;;;23.80;71.23;100587.53;4736800;30;20106;-92
2023/09/07 09:25:45;;;;;;;8.73;6.28;;;;;;;23.84;71.84;100586.31;4759960;30;20048;-92
2023/09/07 09:28:11;;;;;;;8.18;6.85;;;;;;;23.89;72.77;100581.41;4754200;30;20487;-92
2023/09/07 09:30:37;;;;;;;8.70;6.68;;;;;;;23.98;70.84;100580.63;4739751;30;20103;-93
2023/09/07 09:33:05;;;;;;;9.93;6.95;;;;;;;23.80;70.37;100571.59;4770534;30;20047;-92
2023/09/07 09:35:31;;;;;;;7.13;6.43;;;;;;;23.88;71.43;100588.56;4768653;30;20032;-92
2023/09/07 09:38:04;;;;;;;7.05;6.35;;;;;;;23.96;70.68;100592.38;4770032;30;20453;-94
2023/09/07 09:40:35;;;;;;;7.82;6.32;;;;;;;23.77;69.57;100554.09;4772480;30;20069;-93
2023/09/07 09:43:03;;;;;;;7.53;6.50;;;;;;;24.05;71.58;100584.41;4772216;30;20031;-93
2023/09/07 09:45:31;;;;;;;8.68;6.32;;;;;;;24.07;69.53;100584.31;4759651;30;20050;-93
2023/09/07 09:48:18;;;;;;;8.82;7.00;;;;;;;24.04;70.72;100579.25;4790564;29;20031;-93
2023/09/07 09:51:04;;;;;;;10.57;6.63;;;;;;;24.04;70.95;100582.72;4699482;30;20037;-93
2023/09/07 09:53:51;;;;;;;8.32;6.78;;;;;;;24.08;69.98;100584.16;4660576;30;20051;-94
2023/09/07 09:56:17;;;;;;;8.63;6.20;;;;;;;24.06;70.30;100588.78;4649152;30;20066;-92
2023/09/07 09:58:42;;;;;;;9.75;6.72;;;;;;;24.04;70.39;100582.72;4662513;30;20176;-93
2023/09/07 10:01:10;;;;;;;8.90;6.45;;;;;;;24.06;70.81;100582.59;4661908;30;20133;-94
2023/09/07 10:03:46;;;;;;;8.10;7.00;;;;;;;23.92;72.30;100548.38;4634121;30;20497;-93
2023/09/07 10:06:29;;;;;;;8.85;6.47;;;;;;;24.18;71.47;100581.50;4634901;30;20046;-93
2023/09/07 10:09:17;;;;;;;12.63;7.63;;;;;;;24.10;71.79;100563.59;4648809;30;20051;-93
2023/09/07 10:11:50;;;;;;;7.10;6.28;;;;;;;24.25;71.68;100576.50;4620251;31;20503;-93
2023/09/07 10:14:16;;;;;;;8.18;6.57;;;;;;;24.07;70.19;100558.53;4630575;31;20469;-94
2023/09/07 10:16:55;;;;;;;7.75;6.55;;;;;;;24.18;70.15;100576.19;4615808;31;20082;-94
2023/09/07 10:19:25;;;;;;;7.50;6.55;;;;;;;24.00;70.97;100552.06;4615788;31;20087;-93
2023/09/07 10:21:53;;;;;;;8.37;7.40;;;;;;;24.20;70.50;100584.06;4636871;30;20125;-94
2023/09/07 10:24:36;;;;;;;7.20;6.47;;;;;;;24.20;70.66;100578.72;4647358;30;20287;-93
2023/09/07 10:27:06;;;;;;;7.57;6.80;;;;;;;24.17;69.18;100565.69;4649990;30;20124;-93
2023/09/07 10:29:42;;;;;;;7.75;6.50;;;;;;;24.15;69.21;100579.13;4666734;30;20050;-92
2023/09/07 10:32:10;;;;;;;8.38;6.40;;;;;;;24.08;68.59;100570.84;4713075;30;20045;-93
2023/09/07 10:34:37;;;;;;;7.72;6.70;;;;;;;24.08;69.39;100567.34;4718220;30;20049;-92
2023/09/07 10:37:03;;;;;;;8.52;7.30;;;;;;;24.09;69.81;100574.34;4718105;30;20054;-93
2023/09/07 10:39:32;;;;;;;7.47;6.30;;;;;;;24.10;68.78;100562.72;4703740;30;20048;-93
2023/09/07 10:41:57;;;;;;;8.88;6.95;;;;;;;24.13;68.55;100562.44;4718470;30;20150;-94
2023/09/07 10:44:27;;;;;;;7.15;6.47;;;;;;;24.15;68.16;100569.34;4717755;30;20531;-93
2023/09/07 10:47:13;;;;;;;11.25;8.65;;;;;;;24.14;68.63;100558.81;4718082;30;20045;-94
2023/09/07 10:49:58;;;;;;;9.20;7.93;;;;;;;24.03;68.63;100521.69;4681658;30;20812;-93
2023/09/07 10:52:24;;;;;;;8.40;6.03;;;;;;;24.24;68.30;100557.03;4683188;30;20049;-94
2023/09/07 10:54:58;;;;;;;8.63;6.97;;;;;;;24.26;68.69;100552.38;4683386;30;20579;-92
2023/09/07 10:57:23;;;;;;;9.57;7.82;;;;;;;24.35;67.61;100550.72;4683035;30;20576;-92
2023/09/07 10:59:49;;;;;;;6.38;5.78;;;;;;;24.37;66.26;100546.97;4669114;30;20205;-94
2023/09/07 11:02:15;;;;;;;6.25;5.57;;;;;;;24.32;68.19;100527.06;4680612;30;20119;-93
2023/09/07 11:04:41;;;;;;;8.60;6.22;;;;;;;24.49;69.32;100562.84;4686043;30;20044;-93
2023/09/07 11:07:07;;;;;;;11.23;6.22;;;;;;;24.39;67.94;100526.38;4685877;30;20045;-93
2023/09/07 11:09:32;;;;;;;6.88;5.75;;;;;;;24.49;67.31;100536.19;4700513;30;20649;-93
2023/09/07 11:12:04;;;;;;;7.00;6.00;;;;;;;24.53;68.05;100543.78;4685837;30;20033;-93
2023/09/07 11:14:30;;;;;;;7.85;5.80;;;;;;;24.52;66.60;100534.06;4686007;30;20500;-93
2023/09/07 11:17:17;;;;;;;9.25;6.72;;;;;;;24.49;67.41;100530.88;4686413;30;20053;-94
2023/09/07 11:19:44;;;;;;;9.55;6.82;;;;;;;24.53;67.23;100529.63;4687178;30;20137;-94
2023/09/07 11:22:29;;;;;;;8.00;6.00;;;;;;;24.58;67.84;100530.03;4770268;30;20146;-94
2023/09/07 11:24:56;;;;;;;10.70;6.30;;;;;;;24.52;68.44;100510.09;4752980;30;20096;-93
2023/09/07 11:27:58;;;;;;;6.47;5.35;;;;;;;24.74;66.70;100534.81;4730075;30;20590;-95
2023/09/07 11:30:26;;;;;;;6.85;5.32;;;;;;;24.74;66.79;100535.63;4726734;30;20491;-88